Time;durP1;ratioP1;P1;durP2;ratioP2;P2;SDS_P1;SDS_P2;PMS_P1;PMS_P2;Temp;Humidity;BMP_temperature;BMP_pressure;BME280_temperature;BME280_humidity;BME280_pressure;Samples;Min_cycle;Max_cycle;Signal;HPM_P1;HPM_P2
2023/08/14 00:01:13;;;;;;;8.07;4.95;;;;;;;23.67;49.74;101494.00;5012214;28;20384;-69
2023/08/14 00:03:38;;;;;;;5.90;5.33;;;;;;;23.67;49.62;101492.09;5011702;28;20372;-70
2023/08/14 00:06:03;;;;;;;8.47;5.07;;;;;;;23.66;49.64;101489.66;5011755;28;20388;-70
2023/08/14 00:08:29;;;;;;;6.10;4.82;;;;;;;23.69;49.61;101496.47;5011874;28;20426;-70
2023/08/14 00:10:55;;;;;;;5.90;4.93;;;;;;;23.66;49.50;101490.47;5011734;28;21554;-70
2023/08/14 00:13:21;;;;;;;6.83;5.27;;;;;;;23.69;49.46;101496.47;5043668;28;20400;-70
2023/08/14 00:15:48;;;;;;;7.03;5.00;;;;;;;23.71;49.64;101492.44;5010863;28;20384;-69
2023/08/14 00:18:14;;;;;;;5.50;5.00;;;;;;;23.70;49.51;101498.94;5012242;28;20439;-69
2023/08/14 00:20:39;;;;;;;8.18;5.20;;;;;;;23.70;49.72;101492.69;5011244;28;20764;-70
2023/08/14 00:23:05;;;;;;;9.75;5.85;;;;;;;23.67;49.94;101492.09;5010436;28;20817;-70
2023/08/14 00:25:31;;;;;;;6.57;5.07;;;;;;;23.69;49.92;101499.16;5011780;28;20821;-69
2023/08/14 00:27:56;;;;;;;6.38;4.90;;;;;;;23.56;50.02;101492.13;5011396;28;20475;-69
2023/08/14 00:30:22;;;;;;;7.30;5.07;;;;;;;23.45;51.07;101491.09;5011343;28;20471;-69
2023/08/14 00:32:48;;;;;;;6.50;5.03;;;;;;;22.99;52.35;101492.72;5011086;28;20408;-69
2023/08/14 00:35:13;;;;;;;6.85;4.82;;;;;;;22.88;52.35;101495.16;5011231;28;20811;-69
2023/08/14 00:37:41;;;;;;;7.38;4.85;;;;;;;23.01;52.07;101499.53;5011210;28;20412;-69
2023/08/14 00:40:09;;;;;;;7.22;5.20;;;;;;;22.95;52.32;101492.34;5010724;28;20910;-69
2023/08/14 00:42:34;;;;;;;6.70;4.88;;;;;;;22.94;52.43;101498.00;4993721;28;20407;-69
2023/08/14 00:45:00;;;;;;;6.70;4.97;;;;;;;22.90;52.20;101506.59;5011620;28;20384;-69
2023/08/14 00:47:25;;;;;;;6.82;4.80;;;;;;;22.79;52.68;101495.75;5011436;28;20387;-69
2023/08/14 00:49:51;;;;;;;8.37;4.93;;;;;;;22.70;52.81;101509.56;5010734;28;20443;-69
2023/08/14 00:52:17;;;;;;;5.68;4.85;;;;;;;22.51;53.71;101511.53;5010207;28;20490;-69
2023/08/14 00:54:42;;;;;;;7.07;5.00;;;;;;;22.52;53.45;101506.94;5011431;28;20388;-69
2023/08/14 00:57:08;;;;;;;5.87;5.27;;;;;;;22.67;52.77;101501.94;5011139;28;20415;-69
2023/08/14 00:59:34;;;;;;;7.43;5.20;;;;;;;22.78;52.69;101511.13;5011027;28;20384;-69
2023/08/14 01:02:00;;;;;;;6.97;5.00;;;;;;;22.79;52.63;101498.44;5010877;28;20407;-69
2023/08/14 01:04:25;;;;;;;5.78;5.00;;;;;;;22.67;52.88;101498.41;5010923;28;20380;-69
2023/08/14 01:06:51;;;;;;;7.10;5.30;;;;;;;22.74;52.53;101504.53;5010492;28;20958;-69
2023/08/14 01:09:16;;;;;;;7.50;5.33;;;;;;;22.75;52.49;101495.38;5010958;28;20391;-69
2023/08/14 01:12:00;;;;;;;6.40;4.90;;;;;;;22.86;52.15;101504.56;5010751;28;20821;-69
2023/08/14 01:14:32;;;;;;;6.63;5.18;;;;;;;22.88;51.84;101502.44;5010805;28;20729;-69
2023/08/14 01:17:08;;;;;;;7.50;5.30;;;;;;;22.83;51.88;101497.75;5010778;28;20506;-69
2023/08/14 01:19:41;;;;;;;5.60;5.10;;;;;;;22.93;51.63;101502.56;5010462;28;20408;-69
2023/08/14 01:22:31;;;;;;;8.38;5.18;;;;;;;22.93;51.44;101499.88;5010607;28;20391;-69
2023/08/14 01:24:59;;;;;;;8.98;5.53;;;;;;;22.79;51.78;101504.66;5010572;28;20792;-69
2023/08/14 01:27:26;;;;;;;6.18;5.57;;;;;;;22.85;51.56;101500.19;5010627;28;20855;-69
2023/08/14 01:29:58;;;;;;;7.20;5.47;;;;;;;22.89;51.72;101501.41;5010465;28;20388;-69
2023/08/14 01:32:23;;;;;;;10.10;5.80;;;;;;;22.91;51.21;101502.00;5010474;28;20481;-69
2023/08/14 01:34:50;;;;;;;8.73;6.13;;;;;;;22.95;51.21;101500.47;5010147;28;20387;-69
2023/08/14 01:37:18;;;;;;;8.85;5.90;;;;;;;22.97;50.91;101505.63;5010166;28;20888;-69
2023/08/14 01:39:48;;;;;;;7.47;5.60;;;;;;;23.01;51.05;101507.66;5010102;28;20403;-69
2023/08/14 01:42:42;;;;;;;6.25;5.65;;;;;;;23.01;50.77;101504.09;5010804;28;20395;-70
2023/08/14 01:45:14;;;;;;;7.75;6.00;;;;;;;22.84;51.19;101502.09;5008605;28;20388;-69
2023/08/14 01:47:42;;;;;;;9.40;7.10;;;;;;;22.70;51.56;101506.06;5010380;28;20383;-69
2023/08/14 01:50:08;;;;;;;8.35;6.38;;;;;;;22.65;51.66;101514.88;5009889;28;20404;-69
2023/08/14 01:52:34;;;;;;;12.50;8.98;;;;;;;22.63;51.92;101503.44;5010467;28;20384;-69
2023/08/14 01:55:00;;;;;;;16.70;9.77;;;;;;;22.64;51.93;101512.41;5010223;28;20399;-70
2023/08/14 01:57:26;;;;;;;12.63;10.25;;;;;;;22.60;51.96;101503.09;5010756;28;20414;-69
2023/08/14 01:59:52;;;;;;;12.60;9.23;;;;;;;22.69;51.34;101516.06;5010672;28;20411;-70
2023/08/14 02:02:17;;;;;;;11.65;9.60;;;;;;;22.79;50.82;101509.25;5010707;28;20864;-70
2023/08/14 02:04:43;;;;;;;10.10;7.77;;;;;;;22.80;51.25;101517.13;5009888;28;20388;-69
2023/08/14 02:07:11;;;;;;;7.50;6.78;;;;;;;22.83;50.94;101515.84;5010366;28;20388;-69
2023/08/14 02:09:37;;;;;;;9.07;6.70;;;;;;;22.79;50.99;101510.06;5009914;28;20445;-69
2023/08/14 02:12:03;;;;;;;9.05;6.50;;;;;;;22.78;51.24;101515.69;5010122;28;20380;-69
2023/08/14 02:14:29;;;;;;;21.73;7.32;;;;;;;22.77;51.05;101522.19;5010485;28;20383;-70
2023/08/14 02:16:55;;;;;;;9.00;6.75;;;;;;;22.65;51.35;101514.03;5010337;28;20384;-69
2023/08/14 02:19:20;;;;;;;7.43;6.53;;;;;;;22.63;51.24;101516.16;5010123;28;20864;-70
2023/08/14 02:21:46;;;;;;;8.97;6.73;;;;;;;22.63;51.19;101519.66;5010093;28;20391;-70
2023/08/14 02:24:11;;;;;;;7.60;6.78;;;;;;;22.59;51.96;101523.88;5009952;28;20384;-70
2023/08/14 02:26:37;;;;;;;9.97;6.67;;;;;;;22.56;51.72;101532.44;5010104;28;20376;-70
2023/08/14 02:29:03;;;;;;;12.10;6.60;;;;;;;22.57;52.10;101539.50;5010030;28;20398;-70
2023/08/14 02:31:28;;;;;;;9.60;6.70;;;;;;;22.60;51.93;101535.50;5009697;28;20426;-70
2023/08/14 02:33:59;;;;;;;10.50;6.80;;;;;;;22.67;51.62;101537.09;5009258;28;20438;-70
2023/08/14 02:36:26;;;;;;;7.47;5.75;;;;;;;22.70;51.50;101550.13;5009811;28;20424;-70
2023/08/14 02:38:52;;;;;;;9.30;6.53;;;;;;;22.70;51.17;101536.59;5009777;28;20412;-70
2023/08/14 02:41:18;;;;;;;7.93;6.35;;;;;;;22.77;51.27;101547.31;5009792;28;20410;-71
2023/08/14 02:43:44;;;;;;;7.37;6.57;;;;;;;22.78;51.38;101545.44;5010054;28;20845;-70
2023/08/14 02:46:09;;;;;;;8.38;6.50;;;;;;;22.67;51.46;101547.91;5009565;28;20392;-70
2023/08/14 02:48:34;;;;;;;10.13;6.43;;;;;;;22.58;51.91;101551.13;5013317;28;20381;-70
2023/08/14 02:51:00;;;;;;;8.75;6.35;;;;;;;22.45;52.33;101547.56;5013415;28;20480;-70
2023/08/14 02:53:26;;;;;;;6.87;6.07;;;;;;;22.39;52.46;101553.88;5013588;28;20412;-70
2023/08/14 02:55:52;;;;;;;10.57;6.10;;;;;;;22.21;52.76;101549.31;5013536;28;20450;-70
2023/08/14 02:58:21;;;;;;;6.50;5.68;;;;;;;22.10;52.61;101556.31;5013247;28;20466;-70
2023/08/14 03:00:47;;;;;;;8.10;5.90;;;;;;;22.07;52.60;101564.03;5013087;28;20457;-70
2023/08/14 03:03:13;;;;;;;7.28;6.10;;;;;;;22.08;52.69;101563.00;5013264;28;20749;-70
2023/08/14 03:05:39;;;;;;;9.00;6.33;;;;;;;22.17;52.38;101558.94;5013095;28;20452;-71
2023/08/14 03:08:05;;;;;;;10.30;6.20;;;;;;;22.25;51.92;101564.00;4999920;28;20402;-70
2023/08/14 03:10:31;;;;;;;9.67;5.90;;;;;;;22.35;51.58;101560.00;5000285;28;20404;-70
2023/08/14 03:12:57;;;;;;;8.32;6.20;;;;;;;22.39;51.21;101559.28;5013158;28;20384;-70
2023/08/14 03:15:23;;;;;;;7.85;6.40;;;;;;;22.37;51.31;101566.00;5013035;28;20465;-70
2023/08/14 03:17:49;;;;;;;7.03;5.97;;;;;;;22.39;51.19;101564.69;5011656;28;20400;-70
2023/08/14 03:20:15;;;;;;;7.72;6.07;;;;;;;22.31;51.47;101565.03;5013135;28;20404;-70
2023/08/14 03:22:40;;;;;;;7.25;6.13;;;;;;;22.28;51.79;101566.28;5013118;28;20786;-70
2023/08/14 03:25:06;;;;;;;7.90;6.03;;;;;;;22.29;51.61;101562.56;5013610;28;20372;-70
2023/08/14 03:27:32;;;;;;;7.75;6.13;;;;;;;22.29;51.44;101569.81;5012284;28;20384;-70
2023/08/14 03:29:58;;;;;;;10.60;6.18;;;;;;;22.16;52.29;101573.47;5012807;28;20380;-70
2023/08/14 03:32:23;;;;;;;10.80;6.67;;;;;;;22.07;52.34;101574.84;5012981;28;20904;-70
2023/08/14 03:34:49;;;;;;;10.80;6.07;;;;;;;21.95;52.47;101566.69;5012832;28;20424;-70
2023/08/14 03:37:14;;;;;;;10.13;6.43;;;;;;;21.85;52.78;101572.56;5012399;28;20408;-70
2023/08/14 03:39:40;;;;;;;11.00;6.30;;;;;;;21.75;53.18;101577.66;5013201;28;20391;-70
2023/08/14 03:42:05;;;;;;;9.33;5.77;;;;;;;21.73;53.36;101583.31;5012461;28;20482;-70
2023/08/14 03:44:31;;;;;;;8.45;6.00;;;;;;;21.77;53.13;101578.28;5011779;28;20527;-70
2023/08/14 03:46:56;;;;;;;8.87;5.90;;;;;;;21.77;52.94;101579.09;5010843;28;20404;-70
2023/08/14 03:49:22;;;;;;;6.38;5.43;;;;;;;21.80;52.85;101591.31;5012174;28;20395;-70
2023/08/14 03:51:47;;;;;;;7.00;5.50;;;;;;;21.72;52.96;101589.75;5019089;28;20422;-70
2023/08/14 03:54:13;;;;;;;8.00;5.43;;;;;;;21.67;53.15;101597.66;5022263;28;20378;-70
2023/08/14 03:56:38;;;;;;;6.30;5.57;;;;;;;21.62;53.14;101591.28;5021017;28;20742;-70
2023/08/14 03:59:05;;;;;;;6.93;5.57;;;;;;;21.58;53.04;101590.91;5019134;28;20431;-70
2023/08/14 04:01:30;;;;;;;8.33;5.20;;;;;;;21.57;53.29;101600.88;5006036;28;20921;-71
2023/08/14 04:03:55;;;;;;;9.40;5.43;;;;;;;21.52;53.14;101606.13;5021288;28;20421;-71
2023/08/14 04:06:21;;;;;;;6.97;5.30;;;;;;;21.48;53.46;101606.78;5014238;28;20396;-70
2023/08/14 04:08:46;;;;;;;6.47;5.88;;;;;;;21.57;53.10;101611.69;5012058;28;20433;-69
2023/08/14 04:11:12;;;;;;;8.20;5.93;;;;;;;21.55;53.38;101607.53;5010733;28;20742;-70
2023/08/14 04:13:37;;;;;;;8.43;6.10;;;;;;;21.54;53.25;101622.09;5011348;28;20404;-70
2023/08/14 04:16:03;;;;;;;9.85;6.30;;;;;;;21.62;53.17;101620.97;5011699;28;20472;-70
2023/08/14 04:18:30;;;;;;;9.68;6.70;;;;;;;21.74;52.96;101619.22;5011321;28;20735;-70
2023/08/14 04:20:56;;;;;;;10.40;7.03;;;;;;;21.84;52.45;101618.69;5011164;28;20396;-70
2023/08/14 04:23:25;;;;;;;11.18;6.20;;;;;;;21.92;52.31;101616.53;5011010;28;20399;-71
2023/08/14 04:25:52;;;;;;;9.20;6.28;;;;;;;21.85;52.65;101617.66;5011336;28;20482;-71
2023/08/14 04:28:17;;;;;;;8.57;6.27;;;;;;;21.76;52.69;101620.63;5010682;28;20475;-71
2023/08/14 04:30:43;;;;;;;7.83;6.00;;;;;;;21.90;52.50;101623.22;5011138;28;20483;-71
2023/08/14 04:33:09;;;;;;;9.35;5.85;;;;;;;22.03;52.16;101619.53;5008562;28;20415;-71
2023/08/14 04:35:35;;;;;;;8.77;6.07;;;;;;;22.14;51.79;101627.69;5010983;28;20427;-71
2023/08/14 04:38:00;;;;;;;7.18;5.45;;;;;;;22.28;51.56;101633.00;5010658;28;20406;-71
2023/08/14 04:40:26;;;;;;;7.75;5.53;;;;;;;22.35;51.42;101638.34;5010880;28;20400;-71
2023/08/14 04:42:51;;;;;;;6.73;5.60;;;;;;;22.29;51.75;101638.19;5010172;28;20384;-71
2023/08/14 04:45:17;;;;;;;6.63;4.83;;;;;;;22.43;51.22;101640.72;5010911;28;20422;-71
2023/08/14 04:47:42;;;;;;;7.28;5.47;;;;;;;22.50;51.04;101644.97;5010867;28;20537;-71
2023/08/14 04:50:08;;;;;;;5.93;4.87;;;;;;;22.56;50.85;101640.53;5010603;28;20423;-70
2023/08/14 04:52:33;;;;;;;5.93;5.30;;;;;;;22.53;51.00;101641.00;5010512;28;20399;-71
2023/08/14 04:54:59;;;;;;;9.18;5.13;;;;;;;22.55;50.73;101648.91;5010957;28;20862;-71
2023/08/14 04:57:24;;;;;;;7.13;5.17;;;;;;;22.57;50.85;101653.00;5010476;28;20399;-71
2023/08/14 04:59:50;;;;;;;7.90;5.70;;;;;;;22.62;50.92;101661.25;5011066;28;20388;-71
2023/08/14 05:02:15;;;;;;;7.65;5.20;;;;;;;22.74;50.55;101658.59;5010815;28;20411;-70
2023/08/14 05:04:40;;;;;;;8.80;5.57;;;;;;;22.84;50.43;101663.47;5011097;28;20399;-71
2023/08/14 05:07:06;;;;;;;6.13;5.50;;;;;;;22.75;50.61;101664.84;5010863;28;20729;-70
2023/08/14 05:09:31;;;;;;;8.20;5.65;;;;;;;22.90;50.57;101668.81;5010302;28;20475;-71
2023/08/14 05:11:58;;;;;;;8.83;5.50;;;;;;;23.04;50.12;101668.59;5009983;28;20392;-71
2023/08/14 05:14:24;;;;;;;7.70;5.10;;;;;;;23.05;49.96;101664.88;5010446;28;20394;-71
2023/08/14 05:16:50;;;;;;;6.70;5.37;;;;;;;23.00;50.16;101662.00;5010715;28;20376;-71
2023/08/14 05:19:15;;;;;;;7.15;5.35;;;;;;;23.07;50.10;101669.00;5010570;28;20418;-70
2023/08/14 05:21:40;;;;;;;7.00;5.33;;;;;;;23.13;49.96;101675.38;5010744;28;20381;-71
2023/08/14 05:24:06;;;;;;;7.13;5.20;;;;;;;23.24;49.59;101676.44;5010338;28;20388;-70
2023/08/14 05:26:32;;;;;;;7.50;4.82;;;;;;;23.27;49.87;101678.72;5010410;28;20376;-70
2023/08/14 05:28:57;;;;;;;7.27;5.53;;;;;;;23.34;49.67;101692.13;5010436;28;20373;-70
2023/08/14 05:31:23;;;;;;;7.68;5.80;;;;;;;23.37;49.54;101691.66;5010414;28;20416;-71
2023/08/14 05:33:48;;;;;;;7.90;5.40;;;;;;;23.23;49.81;101693.75;5009655;28;20723;-70
2023/08/14 05:36:13;;;;;;;6.87;5.00;;;;;;;23.22;50.28;101694.81;5009471;28;20721;-71
2023/08/14 05:38:39;;;;;;;10.63;5.63;;;;;;;23.29;50.15;101680.09;5009390;28;20758;-72
2023/08/14 05:41:04;;;;;;;8.98;5.93;;;;;;;23.45;50.10;101691.34;5008364;28;20392;-71
2023/08/14 05:43:30;;;;;;;9.00;5.40;;;;;;;23.47;49.87;101691.91;5010619;28;20384;-71
2023/08/14 05:45:56;;;;;;;8.35;5.40;;;;;;;23.51;50.40;101689.56;5010734;28;20439;-71
2023/08/14 05:48:22;;;;;;;7.57;5.63;;;;;;;23.61;49.63;101685.25;5009996;28;20853;-71
2023/08/14 05:50:51;;;;;;;6.80;5.55;;;;;;;23.80;49.62;101687.88;5010413;28;20475;-71
2023/08/14 05:53:16;;;;;;;9.10;5.23;;;;;;;23.95;49.22;101680.13;5010086;28;20380;-71
2023/08/14 05:55:42;;;;;;;7.75;5.00;;;;;;;24.14;48.63;101685.41;5009646;28;20478;-72
2023/08/14 05:58:08;;;;;;;6.37;5.23;;;;;;;24.30;48.43;101687.38;5009924;28;20473;-72
2023/08/14 06:00:35;;;;;;;6.05;4.80;;;;;;;24.38;47.53;101689.72;5008986;28;20387;-72
2023/08/14 06:03:01;;;;;;;6.83;4.97;;;;;;;24.56;46.85;101680.63;5008976;28;20402;-72
2023/08/14 06:05:27;;;;;;;5.30;4.80;;;;;;;24.58;46.38;101681.22;5004104;28;20470;-71
2023/08/14 06:07:54;;;;;;;8.00;5.20;;;;;;;24.80;46.30;101692.22;5006031;28;20479;-71
2023/08/14 06:10:20;;;;;;;6.15;4.97;;;;;;;24.99;45.90;101692.88;5009787;28;20463;-71
2023/08/14 06:12:48;;;;;;;6.10;5.03;;;;;;;25.00;45.89;101690.97;5010213;28;20445;-71
2023/08/14 06:15:15;;;;;;;6.78;5.05;;;;;;;25.10;45.67;101696.59;5010451;28;20416;-72
2023/08/14 06:17:41;;;;;;;5.88;4.40;;;;;;;25.17;45.24;101699.13;5009666;28;20407;-72
2023/08/14 06:20:07;;;;;;;5.50;4.60;;;;;;;25.25;44.79;101687.91;5006448;28;20445;-72
2023/08/14 06:22:44;;;;;;;6.20;4.38;;;;;;;25.23;44.13;101694.63;5011782;28;20376;-72
2023/08/14 06:25:12;;;;;;;7.03;4.20;;;;;;;25.39;43.25;101688.44;5013442;28;20702;-71
2023/08/14 06:27:38;;;;;;;6.10;4.93;;;;;;;25.53;43.60;101692.47;5013754;28;20391;-70
2023/08/14 06:30:04;;;;;;;5.97;4.15;;;;;;;25.66;42.98;101688.59;5013853;28;20380;-72
2023/08/14 06:32:30;;;;;;;7.50;4.60;;;;;;;25.77;42.76;101689.59;5013487;28;20733;-72
2023/08/14 06:34:55;;;;;;;8.07;4.88;;;;;;;26.18;41.86;101692.94;5013921;28;20398;-71
2023/08/14 06:37:21;;;;;;;6.57;4.20;;;;;;;26.28;41.88;101689.53;5013464;28;20546;-70
2023/08/14 06:39:46;;;;;;;5.37;4.40;;;;;;;26.25;41.84;101692.72;5012680;28;20453;-71
2023/08/14 06:42:12;;;;;;;7.28;4.93;;;;;;;26.29;41.50;101699.34;5013279;28;20670;-71
2023/08/14 06:44:37;;;;;;;5.07;4.57;;;;;;;26.31;41.50;101706.16;5011853;28;20399;-71
2023/08/14 06:47:03;;;;;;;7.27;4.80;;;;;;;26.57;41.35;101692.06;5012555;28;20388;-71
2023/08/14 06:49:28;;;;;;;10.75;4.82;;;;;;;26.43;40.96;101699.75;5012271;28;20508;-73
2023/08/14 06:51:54;;;;;;;7.28;4.78;;;;;;;26.45;40.97;101708.47;5012362;28;20707;-70
2023/08/14 06:54:19;;;;;;;6.10;4.73;;;;;;;26.52;40.84;101706.41;5011901;28;20379;-70
2023/08/14 06:56:45;;;;;;;6.03;4.57;;;;;;;26.55;40.87;101700.47;5012033;28;20376;-71
2023/08/14 06:59:10;;;;;;;5.20;4.70;;;;;;;26.54;40.92;101703.44;5011745;28;20415;-71
2023/08/14 07:01:36;;;;;;;5.87;4.77;;;;;;;26.73;40.74;101712.13;5012134;28;20948;-70
2023/08/14 07:04:02;;;;;;;4.87;4.33;;;;;;;27.05;40.60;101706.78;5010951;28;20381;-71
2023/08/14 07:06:27;;;;;;;8.25;4.13;;;;;;;27.31;40.56;101701.59;5012609;28;20394;-71
2023/08/14 07:08:53;;;;;;;6.00;4.40;;;;;;;27.62;39.20;101699.94;5006048;28;20428;-71
2023/08/14 07:11:18;;;;;;;7.60;4.57;;;;;;;27.68;39.58;101688.00;5010792;28;20403;-70
2023/08/14 07:13:44;;;;;;;5.57;4.30;;;;;;;27.72;39.64;101691.84;5010796;28;20491;-70
2023/08/14 07:16:09;;;;;;;4.53;3.70;;;;;;;27.60;38.74;101688.47;5008068;28;20434;-72
2023/08/14 07:18:35;;;;;;;6.23;4.30;;;;;;;27.80;38.79;101682.34;5008794;28;20414;-71
2023/08/14 07:21:00;;;;;;;6.18;4.00;;;;;;;27.99;38.63;101686.31;5009280;28;20388;-72
2023/08/14 07:23:26;;;;;;;5.75;4.10;;;;;;;28.10;38.69;101684.47;5009516;28;20488;-70
2023/08/14 07:25:51;;;;;;;7.73;4.47;;;;;;;28.31;38.17;101681.88;5010533;28;20470;-70
2023/08/14 07:28:17;;;;;;;5.10;4.10;;;;;;;28.40;38.03;101685.72;5011290;28;20442;-70
2023/08/14 07:30:43;;;;;;;6.25;4.75;;;;;;;28.34;38.03;101682.16;5011372;28;20379;-70
2023/08/14 07:33:13;;;;;;;5.22;3.90;;;;;;;28.39;37.19;101695.78;5011187;28;20392;-70
2023/08/14 07:35:39;;;;;;;6.67;3.87;;;;;;;28.36;36.12;101676.41;5011512;28;20450;-70
2023/08/14 07:38:05;;;;;;;5.40;3.20;;;;;;;28.34;35.70;101678.59;5011142;28;20519;-71
2023/08/14 07:40:30;;;;;;;4.10;3.53;;;;;;;28.35;35.83;101681.06;5010596;28;20961;-71
2023/08/14 07:42:56;;;;;;;6.15;3.60;;;;;;;28.44;35.54;101678.63;5009813;28;20388;-70
2023/08/14 07:45:21;;;;;;;5.10;3.70;;;;;;;28.78;34.65;101680.97;5009899;28;20399;-71
2023/08/14 07:47:47;;;;;;;5.67;3.60;;;;;;;28.83;34.75;101678.25;5010003;28;20667;-71
2023/08/14 07:50:12;;;;;;;5.27;4.10;;;;;;;28.89;34.66;101687.25;5009852;28;20466;-70
2023/08/14 07:52:38;;;;;;;5.80;3.55;;;;;;;28.90;34.61;101681.53;5009837;28;20797;-71
2023/08/14 07:55:04;;;;;;;6.18;4.03;;;;;;;29.07;34.40;101681.28;5011174;28;20404;-71
2023/08/14 07:57:29;;;;;;;5.55;3.45;;;;;;;29.17;34.23;101681.34;5011173;28;20458;-71
2023/08/14 07:59:55;;;;;;;5.10;3.33;;;;;;;29.17;34.48;101680.50;5008203;28;20785;-71
2023/08/14 08:02:21;;;;;;;5.37;3.70;;;;;;;29.30;34.56;101679.16;4998514;28;21109;-71
2023/08/14 08:04:47;;;;;;;7.35;3.30;;;;;;;29.24;34.38;101674.78;5004837;28;20414;-71
2023/08/14 08:07:13;;;;;;;4.45;3.38;;;;;;;29.27;34.80;101676.97;5005020;28;20380;-72
2023/08/14 08:09:38;;;;;;;4.50;3.28;;;;;;;29.40;34.38;101675.59;5003897;28;20407;-70
2023/08/14 08:12:04;;;;;;;5.80;3.57;;;;;;;29.49;34.33;101679.41;4992971;28;20731;-70
2023/08/14 08:14:30;;;;;;;5.60;3.70;;;;;;;29.51;34.19;101685.41;5004797;28;20730;-70
2023/08/14 08:16:55;;;;;;;4.10;3.30;;;;;;;29.46;33.83;101682.69;5011749;28;20388;-70
2023/08/14 08:19:21;;;;;;;6.10;3.30;;;;;;;29.47;34.12;101673.41;5001162;28;20400;-71
2023/08/14 08:21:47;;;;;;;5.70;3.42;;;;;;;29.71;33.80;101674.47;5008522;28;20864;-70
2023/08/14 08:24:12;;;;;;;5.30;3.40;;;;;;;29.79;33.71;101667.66;5009870;28;20391;-71
2023/08/14 08:26:38;;;;;;;4.05;3.17;;;;;;;29.77;33.93;101663.56;5010654;28;20399;-72
2023/08/14 08:29:05;;;;;;;4.50;3.20;;;;;;;29.82;34.21;101658.06;5010067;28;20384;-70
2023/08/14 08:31:31;;;;;;;7.38;3.60;;;;;;;29.86;33.90;101659.19;5010668;28;20419;-72
2023/08/14 08:33:57;;;;;;;7.43;3.70;;;;;;;29.89;33.52;101662.19;5011034;28;20408;-71
2023/08/14 08:36:22;;;;;;;5.30;3.22;;;;;;;29.83;32.84;101657.81;5010185;28;20403;-70
2023/08/14 08:38:48;;;;;;;5.63;3.60;;;;;;;29.89;32.91;101658.59;5010416;28;20866;-71
2023/08/14 08:41:30;;;;;;;6.55;3.40;;;;;;;30.01;33.04;101647.38;5009968;28;21308;-71
2023/08/14 08:44:07;;;;;;;6.55;3.47;;;;;;;30.05;32.79;101654.75;5008624;28;20399;-71
2023/08/14 08:46:41;;;;;;;5.32;3.50;;;;;;;30.09;32.92;101647.63;5010330;28;20388;-71
2023/08/14 08:49:07;;;;;;;5.57;3.13;;;;;;;30.32;32.56;101650.78;5009869;28;20903;-72
2023/08/14 08:51:39;;;;;;;4.93;3.60;;;;;;;30.42;32.25;101653.53;5010614;28;20833;-71
2023/08/14 08:54:05;;;;;;;4.80;3.28;;;;;;;30.38;31.81;101646.97;5010666;28;20410;-70
2023/08/14 08:56:32;;;;;;;4.95;3.50;;;;;;;30.49;31.90;101636.81;5010627;28;20407;-73
2023/08/14 08:58:58;;;;;;;6.07;3.38;;;;;;;30.56;31.75;101639.22;5010164;28;20550;-72
2023/08/14 09:01:25;;;;;;;7.15;3.70;;;;;;;30.52;31.85;101638.13;5010691;28;20399;-70
2023/08/14 09:03:51;;;;;;;3.88;3.35;;;;;;;30.58;32.23;101635.09;5008481;28;20868;-71
2023/08/14 09:06:16;;;;;;;6.87;3.63;;;;;;;30.78;32.54;101638.81;5010422;28;20398;-71
2023/08/14 09:08:42;;;;;;;5.47;3.40;;;;;;;30.96;32.15;101637.34;5009724;28;20478;-72
2023/08/14 09:11:07;;;;;;;5.90;3.10;;;;;;;30.98;32.36;101635.94;5007821;28;20396;-71
2023/08/14 09:13:33;;;;;;;6.63;3.20;;;;;;;31.00;31.98;101628.25;5010104;28;20431;-71
2023/08/14 09:16:00;;;;;;;6.47;3.50;;;;;;;31.06;31.45;101629.88;5009111;28;20820;-71
2023/08/14 09:18:25;;;;;;;6.00;3.30;;;;;;;31.05;31.23;101627.41;5009295;28;20419;-71
2023/08/14 09:20:51;;;;;;;5.47;3.30;;;;;;;31.19;31.17;101622.91;5009242;28;20403;-72
2023/08/14 09:23:16;;;;;;;6.90;3.40;;;;;;;31.36;31.31;101618.91;5005238;28;20380;-72
2023/08/14 09:25:46;;;;;;;4.97;3.17;;;;;;;31.48;31.64;101627.59;5009929;28;20396;-71
2023/08/14 09:28:12;;;;;;;5.10;3.25;;;;;;;31.67;30.98;101619.44;5009153;28;20395;-71
2023/08/14 09:30:40;;;;;;;5.97;3.40;;;;;;;31.69;31.04;101616.41;5009797;28;20396;-71
2023/08/14 09:33:08;;;;;;;4.70;3.35;;;;;;;31.68;30.65;101612.88;5009541;28;20439;-72
2023/08/14 09:35:34;;;;;;;7.63;3.45;;;;;;;31.70;30.66;101607.09;5009855;28;20813;-72
2023/08/14 09:38:00;;;;;;;8.73;3.42;;;;;;;31.86;30.33;101605.81;5008535;28;20443;-72
2023/08/14 09:40:25;;;;;;;7.57;3.87;;;;;;;32.01;30.80;101602.88;5009554;28;20493;-72
2023/08/14 09:42:51;;;;;;;5.47;3.63;;;;;;;32.04;31.32;101603.44;5009216;28;20441;-71
2023/08/14 09:45:18;;;;;;;4.20;3.30;;;;;;;32.04;30.78;101608.94;5009350;28;20473;-71
2023/08/14 09:47:45;;;;;;;5.88;4.07;;;;;;;32.09;31.19;101600.59;5014619;28;20714;-72
2023/08/14 09:50:15;;;;;;;4.75;4.03;;;;;;;32.15;31.18;101593.97;5007524;28;20400;-71
2023/08/14 09:52:42;;;;;;;9.10;3.43;;;;;;;32.16;30.13;101590.09;5009078;28;20399;-71
2023/08/14 09:55:08;;;;;;;5.32;3.90;;;;;;;32.15;30.84;101591.22;5009651;28;20698;-72
2023/08/14 09:57:33;;;;;;;5.90;4.05;;;;;;;32.23;30.79;101585.06;5012866;28;20979;-73
2023/08/14 09:59:59;;;;;;;6.93;4.32;;;;;;;32.42;30.54;101576.84;5015276;28;20959;-72
2023/08/14 10:02:26;;;;;;;7.50;4.00;;;;;;;32.54;30.35;101582.69;5013287;28;20384;-71
2023/08/14 10:04:53;;;;;;;6.60;3.80;;;;;;;32.48;29.50;101577.56;5011961;28;20741;-72
2023/08/14 10:07:23;;;;;;;6.18;3.88;;;;;;;32.45;29.48;101568.03;5013479;28;20886;-72
2023/08/14 10:09:55;;;;;;;5.35;4.10;;;;;;;32.41;29.28;101571.66;5012791;28;20387;-71
2023/08/14 10:12:32;;;;;;;5.70;3.53;;;;;;;32.31;29.32;101556.16;5013066;28;20419;-71
2023/08/14 10:15:13;;;;;;;6.63;3.70;;;;;;;32.47;29.70;101563.03;5012981;28;20769;-71
2023/08/14 10:17:47;;;;;;;7.85;4.28;;;;;;;32.52;30.18;101543.75;5012247;28;20396;-72
2023/08/14 10:20:17;;;;;;;5.00;4.55;;;;;;;32.62;29.51;101551.03;5011846;28;20399;-71
2023/08/14 10:22:43;;;;;;;5.80;3.00;;;;;;;32.69;28.91;101545.97;5012657;28;20384;-71
2023/08/14 10:25:10;;;;;;;4.10;3.15;;;;;;;32.70;29.37;101547.63;5012739;28;20456;-71
2023/08/14 10:27:36;;;;;;;4.35;3.50;;;;;;;32.80;28.88;101545.81;5012136;28;20410;-71
2023/08/14 10:30:02;;;;;;;5.70;4.00;;;;;;;32.90;29.23;101546.47;5012401;28;20852;-72
2023/08/14 10:32:28;;;;;;;6.00;4.40;;;;;;;32.89;29.35;101544.00;5012004;28;21024;-71
2023/08/14 10:34:56;;;;;;;4.53;3.60;;;;;;;32.87;29.35;101532.50;5011717;28;20388;-71
2023/08/14 10:37:26;;;;;;;5.30;3.60;;;;;;;33.01;28.89;101527.03;5012840;28;20388;-72
2023/08/14 10:39:57;;;;;;;7.05;4.65;;;;;;;33.14;28.74;101526.28;5012352;28;20383;-72
2023/08/14 10:42:23;;;;;;;5.53;3.90;;;;;;;33.18;29.16;101532.00;5011133;28;20542;-71
2023/08/14 10:44:49;;;;;;;7.43;3.20;;;;;;;33.14;28.30;101523.53;5011101;28;20474;-71
2023/08/14 10:47:14;;;;;;;5.57;3.72;;;;;;;33.10;28.64;101517.00;5011916;28;20399;-73
2023/08/14 10:49:44;;;;;;;6.55;3.00;;;;;;;33.18;27.91;101516.31;5011483;28;20889;-71
2023/08/14 10:52:19;;;;;;;4.40;3.50;;;;;;;33.12;27.99;101512.84;5011147;28;20721;-72
2023/08/14 10:54:51;;;;;;;4.80;3.65;;;;;;;33.18;29.11;101507.25;5011007;28;20427;-71
2023/08/14 10:57:17;;;;;;;5.63;3.10;;;;;;;33.36;28.21;101514.59;5011310;28;20742;-71
2023/08/14 10:59:54;;;;;;;4.30;2.95;;;;;;;33.39;27.23;101513.19;5011457;28;20392;-72
2023/08/14 11:02:19;;;;;;;7.80;3.28;;;;;;;33.35;27.55;101501.97;5011302;28;20686;-71
2023/08/14 11:05:11;;;;;;;5.23;3.13;;;;;;;33.46;27.38;101497.91;5011883;28;20380;-74
2023/08/14 11:07:36;;;;;;;5.30;3.40;;;;;;;33.42;27.69;101498.81;5010335;28;20407;-72
2023/08/14 11:10:06;;;;;;;5.00;3.20;;;;;;;33.45;28.03;101495.44;5011716;28;20394;-72
2023/08/14 11:12:32;;;;;;;4.78;2.97;;;;;;;33.50;27.78;101493.41;5010476;28;20388;-71
2023/08/14 11:14:58;;;;;;;7.97;3.17;;;;;;;33.48;27.80;101492.09;5011305;28;20411;-72
2023/08/14 11:17:25;;;;;;;4.57;2.83;;;;;;;33.38;27.10;101481.31;5011841;28;20412;-71
2023/08/14 11:19:50;;;;;;;3.58;2.80;;;;;;;33.48;27.24;101478.34;5010053;28;20418;-71
2023/08/14 11:22:16;;;;;;;3.45;2.53;;;;;;;33.61;27.01;101484.97;5010703;28;20385;-70